createdAt,value
2019-04-28T00:01:46.214Z,87.70
2019-04-28T00:04:14.681Z,87.80
2019-04-28T00:06:43.166Z,87.90
2019-04-28T00:09:12.594Z,87.30
2019-04-28T00:11:41.706Z,87.90
2019-04-28T00:14:11.975Z,88.30
2019-04-28T00:16:41.132Z,88.60
2019-04-28T00:19:11.020Z,89.00
2019-04-28T00:21:44.276Z,88.60
2019-04-28T00:24:32.886Z,88.60
2019-04-28T00:27:02.878Z,88.70
2019-04-28T00:29:38.478Z,87.20
2019-04-28T00:32:01.722Z,87.80
2019-04-28T00:34:31.103Z,87.10
2019-04-28T00:37:01.446Z,86.80
2019-04-28T00:39:31.020Z,87.10
2019-04-28T00:42:03.029Z,87.10
2019-04-28T00:44:31.528Z,87.70
2019-04-28T00:47:01.121Z,85.90
2019-04-28T00:49:48.013Z,87.30
2019-04-28T00:52:17.851Z,87.90
2019-04-28T00:54:47.307Z,87.60
2019-04-28T00:57:16.700Z,87.60
2019-04-28T00:59:53.939Z,86.50
2019-04-28T01:02:26.405Z,87.60
2019-04-28T01:04:55.203Z,86.20
2019-04-28T01:07:24.154Z,86.90
2019-04-28T01:09:52.792Z,87.60
2019-04-28T01:12:21.539Z,87.30
2019-04-28T01:14:52.219Z,87.80
2019-04-28T01:17:30.880Z,88.10
2019-04-28T01:20:01.000Z,87.90
2019-04-28T01:22:30.079Z,87.90
2019-04-28T01:24:59.563Z,87.20
2019-04-28T01:27:30.389Z,86.90
2019-04-28T01:30:08.003Z,87.40
2019-04-28T01:32:37.770Z,87.30
2019-04-28T01:35:06.799Z,87.60
2019-04-28T01:37:35.318Z,88.40
2019-04-28T01:40:09.426Z,88.10
2019-04-28T01:42:37.699Z,88.20
2019-04-28T01:45:07.254Z,88.40
2019-04-28T01:47:35.767Z,88.90
2019-04-28T01:50:05.104Z,88.10
2019-04-28T01:52:33.734Z,88.00
2019-04-28T01:55:02.294Z,88.10
2019-04-28T01:57:30.833Z,87.80
2019-04-28T01:59:59.968Z,87.90
2019-04-28T02:02:30.108Z,88.40
2019-04-28T02:04:59.952Z,88.60
2019-04-28T02:07:30.683Z,88.80
2019-04-28T02:10:00.578Z,88.80
2019-04-28T02:12:30.374Z,88.80
2019-04-28T02:15:01.052Z,89.50
2019-04-28T02:17:30.415Z,89.90
2019-04-28T02:20:00.671Z,89.30
2019-04-28T02:22:31.973Z,89.10
2019-04-28T02:25:00.512Z,89.10
2019-04-28T02:27:30.222Z,88.90
2019-04-28T02:30:00.102Z,89.00
2019-04-28T02:32:30.915Z,89.30
2019-04-28T02:35:01.161Z,89.60
2019-04-28T02:37:30.696Z,89.60
2019-04-28T02:40:02.806Z,89.40
2019-04-28T02:42:30.960Z,89.50
2019-04-28T02:45:01.307Z,89.80
2019-04-28T02:47:33.536Z,90.00
2019-04-28T02:50:01.716Z,88.90
2019-04-28T02:52:51.818Z,89.20
2019-04-28T02:55:21.305Z,89.10
2019-04-28T02:57:51.705Z,89.10
2019-04-28T03:00:21.643Z,89.80
2019-04-28T03:02:51.347Z,89.70
2019-04-28T03:05:21.650Z,89.70
2019-04-28T03:07:51.505Z,89.10
2019-04-28T03:10:21.516Z,88.70
2019-04-28T03:12:51.698Z,89.00
2019-04-28T03:15:20.638Z,88.90
2019-04-28T03:17:52.414Z,89.00
2019-04-28T03:20:20.974Z,89.10
2019-04-28T03:22:51.021Z,89.00
2019-04-28T03:25:21.474Z,88.80
2019-04-28T03:27:51.591Z,89.30
2019-04-28T03:30:38.179Z,88.50
2019-04-28T03:33:18.052Z,88.10
2019-04-28T03:35:43.816Z,88.70
2019-04-28T03:38:11.423Z,89.00
2019-04-28T03:40:41.405Z,88.70
2019-04-28T03:43:14.144Z,90.00
2019-04-28T03:45:50.219Z,89.60
2019-04-28T03:48:20.957Z,89.70
2019-04-28T03:50:51.210Z,90.10
2019-04-28T03:53:20.662Z,90.30
2019-04-28T03:55:51.346Z,90.30
2019-04-28T03:58:23.581Z,90.20
2019-04-28T04:00:50.636Z,89.70
2019-04-28T04:03:20.945Z,89.70
2019-04-28T04:05:50.834Z,89.30
2019-04-28T04:08:20.852Z,90.00
2019-04-28T04:10:51.297Z,88.80
2019-04-28T04:13:32.655Z,89.30
2019-04-28T04:16:14.220Z,88.50
2019-04-28T04:18:52.949Z,89.30
2019-04-28T04:21:21.375Z,89.20
2019-04-28T04:23:50.950Z,89.70
2019-04-28T04:26:21.217Z,88.70
2019-04-28T04:28:51.567Z,88.80
2019-04-28T04:31:20.145Z,90.00
2019-04-28T04:33:50.629Z,90.20
2019-04-28T04:36:21.147Z,89.60
2019-04-28T04:38:51.377Z,89.20
2019-04-28T04:41:20.224Z,89.00
2019-04-28T04:43:51.342Z,88.50
2019-04-28T04:46:21.848Z,88.40
2019-04-28T04:48:51.212Z,88.70
2019-04-28T04:51:21.206Z,89.00
2019-04-28T04:53:51.203Z,88.70
2019-04-28T04:56:21.046Z,87.40
2019-04-28T04:58:50.551Z,88.10
2019-04-28T05:01:24.042Z,88.40
2019-04-28T05:03:57.079Z,87.70
2019-04-28T05:06:36.046Z,88.30
2019-04-28T05:09:10.210Z,89.40
2019-04-28T05:11:40.084Z,88.90
2019-04-28T05:14:11.655Z,89.60
2019-04-28T05:16:39.855Z,89.40
2019-04-28T05:19:10.005Z,87.90
2019-04-28T05:21:40.231Z,87.40
2019-04-28T05:24:22.790Z,86.50
2019-04-28T05:26:51.568Z,88.00
2019-04-28T05:29:26.529Z,88.00
2019-04-28T05:31:50.589Z,88.50
2019-04-28T05:34:20.651Z,88.90
2019-04-28T05:36:50.514Z,88.10
2019-04-28T05:39:19.671Z,88.40
2019-04-28T05:41:50.265Z,89.00
2019-04-28T05:44:20.120Z,88.60
2019-04-28T05:46:50.391Z,89.20
2019-04-28T05:49:39.745Z,89.20
2019-04-28T05:52:09.617Z,88.90
2019-04-28T05:54:49.751Z,89.30
2019-04-28T05:57:22.738Z,88.40
2019-04-28T05:59:52.848Z,88.40
2019-04-28T06:02:34.823Z,88.70
2019-04-28T06:05:03.292Z,88.70
2019-04-28T06:07:33.373Z,88.50
2019-04-28T06:10:01.848Z,88.30
2019-04-28T06:12:31.915Z,87.20
2019-04-28T06:15:00.657Z,87.80
2019-04-28T06:17:29.529Z,88.60
2019-04-28T06:20:00.050Z,88.60
2019-04-28T06:22:28.359Z,88.60
2019-04-28T06:24:56.881Z,88.60
2019-04-28T06:27:25.403Z,89.00
2019-04-28T06:29:53.860Z,88.60
2019-04-28T06:32:22.337Z,89.50
2019-04-28T06:34:50.803Z,89.10
2019-04-28T06:37:19.255Z,89.20
2019-04-28T06:39:47.710Z,89.00
2019-04-28T06:42:16.267Z,89.40
2019-04-28T06:44:44.741Z,89.70
2019-04-28T06:47:13.205Z,89.00
2019-04-28T06:49:41.665Z,88.20
2019-04-28T06:52:10.155Z,87.90
2019-04-28T06:54:38.616Z,87.70
2019-04-28T06:57:07.126Z,88.30
2019-04-28T06:59:35.643Z,88.00
2019-04-28T07:02:04.154Z,88.20
2019-04-28T07:04:32.723Z,88.60
2019-04-28T07:07:01.279Z,87.40
2019-04-28T07:09:29.809Z,87.40
2019-04-28T07:11:58.388Z,87.20
2019-04-28T07:14:26.874Z,86.40
2019-04-28T07:16:58.087Z,85.80
2019-04-28T07:19:26.556Z,84.80
2019-04-28T07:22:02.870Z,85.00
2019-04-28T07:24:31.405Z,84.70
2019-04-28T07:26:59.947Z,84.80
2019-04-28T07:29:28.507Z,85.10
2019-04-28T07:31:57.014Z,85.10
2019-04-28T07:34:25.533Z,85.60
2019-04-28T07:36:54.073Z,86.10
2019-04-28T07:39:22.636Z,86.90
2019-04-28T07:41:51.098Z,87.00
2019-04-28T07:44:19.560Z,86.20
2019-04-28T07:46:48.493Z,87.10
2019-04-28T07:49:17.037Z,86.90
2019-04-28T07:51:49.949Z,87.40
2019-04-28T07:54:20.345Z,86.70
2019-04-28T07:56:53.536Z,86.90
2019-04-28T07:59:22.028Z,87.10
2019-04-28T08:01:50.640Z,86.60
2019-04-28T08:04:19.101Z,87.00
2019-04-28T08:06:47.563Z,84.50
2019-04-28T08:09:17.661Z,84.50
2019-04-28T08:11:46.121Z,85.30
2019-04-28T08:14:14.658Z,85.40
2019-04-28T08:16:43.122Z,85.90
2019-04-28T08:19:11.664Z,86.40
2019-04-28T08:21:40.220Z,86.80
2019-04-28T08:24:08.701Z,86.80
2019-04-28T08:26:37.131Z,86.20
2019-04-28T08:29:05.667Z,86.20
2019-04-28T08:31:52.289Z,86.40
2019-04-28T08:34:22.322Z,87.20
2019-04-28T08:36:50.832Z,87.90
2019-04-28T08:39:19.306Z,88.20
2019-04-28T08:41:47.772Z,88.60
2019-04-28T08:44:16.251Z,87.80
2019-04-28T08:46:44.698Z,88.10
2019-04-28T08:49:13.326Z,88.00
2019-04-28T08:51:41.843Z,87.90
2019-04-28T08:54:10.318Z,87.90
2019-04-28T08:56:38.898Z,87.80
2019-04-28T08:59:07.415Z,88.30
2019-04-28T09:01:40.233Z,88.30
2019-04-28T09:04:15.204Z,88.10
2019-04-28T09:06:39.024Z,88.30
2019-04-28T09:09:09.126Z,87.90
2019-04-28T09:11:37.840Z,87.40
2019-04-28T09:14:06.383Z,88.20
2019-04-28T09:16:34.854Z,88.20
2019-04-28T09:19:03.368Z,88.00
2019-04-28T09:21:31.826Z,88.20
2019-04-28T09:24:00.367Z,88.30
2019-04-28T09:26:28.857Z,87.70
2019-04-28T09:28:57.367Z,87.20
2019-04-28T09:31:25.843Z,86.40
2019-04-28T09:33:54.298Z,86.40
2019-04-28T09:36:22.861Z,87.10
2019-04-28T09:38:51.676Z,86.70
2019-04-28T09:41:20.144Z,86.90
2019-04-28T09:44:07.069Z,87.30
2019-04-28T09:46:37.308Z,87.40
2019-04-28T09:49:05.911Z,87.40
2019-04-28T09:51:34.384Z,87.70
2019-04-28T09:54:02.854Z,87.60
2019-04-28T09:56:31.448Z,87.60
2019-04-28T09:58:59.892Z,87.80
2019-04-28T10:01:28.365Z,87.20
2019-04-28T10:03:56.803Z,86.40
2019-04-28T10:06:25.274Z,86.80
2019-04-28T10:08:53.730Z,86.80
2019-04-28T10:11:30.238Z,87.80
2019-04-28T10:13:52.566Z,88.50
2019-04-28T10:16:21.963Z,87.70
2019-04-28T10:18:50.490Z,87.90
2019-04-28T10:21:18.947Z,87.90
2019-04-28T10:23:47.482Z,87.30
2019-04-28T10:26:15.932Z,88.20
2019-04-28T10:28:44.394Z,86.40
2019-04-28T10:31:13.504Z,86.70
2019-04-28T10:33:43.826Z,86.40
2019-04-28T10:36:12.612Z,87.30
2019-04-28T10:38:42.711Z,86.40
2019-04-28T10:41:17.079Z,86.50
2019-04-28T10:43:45.539Z,85.50
2019-04-28T10:46:14.064Z,85.60
2019-04-28T10:48:42.511Z,85.80
2019-04-28T10:51:10.966Z,86.20
2019-04-28T10:53:39.485Z,85.60
2019-04-28T10:56:07.978Z,85.20
2019-04-28T10:58:36.435Z,84.60
2019-04-28T11:01:05.848Z,85.70
2019-04-28T11:03:34.379Z,84.50
2019-04-28T11:06:02.901Z,85.60
2019-04-28T11:08:33.106Z,86.30
2019-04-28T11:11:03.340Z,85.60
2019-04-28T11:13:31.812Z,85.80
2019-04-28T11:16:00.392Z,85.20
2019-04-28T11:18:29.155Z,85.30
2019-04-28T11:20:57.618Z,84.10
2019-04-28T11:23:26.064Z,83.00
2019-04-28T11:25:54.540Z,84.00
2019-04-28T11:28:23.126Z,83.50
2019-04-28T11:30:51.702Z,84.00
2019-04-28T11:33:30.563Z,83.50
2019-04-28T11:36:00.235Z,83.60
2019-04-28T11:38:28.835Z,84.10
2019-04-28T11:40:57.336Z,84.10
2019-04-28T11:43:25.824Z,84.20
2019-04-28T11:45:57.094Z,84.20
2019-04-28T11:48:25.540Z,83.10
2019-04-28T11:50:53.990Z,83.90
2019-04-28T11:53:22.567Z,82.00
2019-04-28T11:55:51.050Z,82.40
2019-04-28T11:58:19.535Z,81.90
2019-04-28T12:00:47.984Z,81.90
2019-04-28T12:03:16.528Z,81.40
2019-04-28T12:05:46.714Z,81.70
2019-04-28T12:08:15.215Z,81.40
2019-04-28T12:11:03.604Z,81.30
2019-04-28T12:13:49.975Z,81.00
2019-04-28T12:16:23.085Z,80.70
2019-04-28T12:19:02.255Z,79.20
2019-04-28T12:21:30.709Z,78.30
2019-04-28T12:23:59.151Z,78.70
2019-04-28T12:26:27.616Z,77.20
2019-04-28T12:28:56.077Z,77.30
2019-04-28T12:31:24.559Z,76.00
2019-04-28T12:33:53.038Z,75.80
2019-04-28T12:36:21.606Z,75.70
2019-04-28T12:38:50.186Z,76.80
2019-04-28T12:41:18.802Z,75.30
2019-04-28T12:43:47.326Z,72.00
2019-04-28T12:46:15.957Z,69.70
2019-04-28T12:48:44.553Z,68.70
2019-04-28T12:51:13.055Z,70.50
2019-04-28T12:53:41.689Z,70.80
2019-04-28T12:56:10.223Z,69.80
2019-04-28T12:58:39.894Z,71.80
2019-04-28T13:01:10.072Z,70.60
2019-04-28T13:03:49.032Z,70.20
2019-04-28T13:06:22.066Z,69.70
2019-04-28T13:08:50.550Z,69.90
2019-04-28T13:11:19.112Z,69.60
2019-04-28T13:13:47.662Z,69.70
2019-04-28T13:16:16.218Z,70.00
2019-04-28T13:18:44.717Z,70.40
2019-04-28T13:21:13.239Z,70.70
2019-04-28T13:23:41.782Z,71.30
2019-04-28T13:26:10.313Z,70.50
2019-04-28T13:28:38.847Z,70.70
2019-04-28T13:31:07.461Z,70.20
2019-04-28T13:33:36.105Z,68.90
2019-04-28T13:36:14.552Z,68.90
2019-04-28T13:38:36.449Z,69.50
2019-04-28T13:41:04.920Z,69.80
2019-04-28T13:43:33.480Z,69.90
2019-04-28T13:46:02.325Z,69.50
2019-04-28T13:48:30.969Z,69.80
2019-04-28T13:50:59.505Z,69.60
2019-04-28T13:53:28.913Z,70.70
2019-04-28T13:55:59.135Z,70.70
2019-04-28T13:58:32.344Z,70.10
2019-04-28T14:01:19.163Z,69.80
2019-04-28T14:03:49.278Z,69.30
2019-04-28T14:06:28.033Z,69.40
2019-04-28T14:08:49.633Z,69.00
2019-04-28T14:11:18.160Z,70.70
2019-04-28T14:13:46.819Z,70.80
2019-04-28T14:16:15.380Z,71.50
2019-04-28T14:18:43.934Z,71.80
2019-04-28T14:21:12.504Z,70.60
2019-04-28T14:23:41.014Z,71.50
2019-04-28T14:26:09.503Z,71.70
2019-04-28T14:28:38.311Z,72.20
2019-04-28T14:31:06.833Z,71.10
2019-04-28T14:33:35.326Z,70.60
2019-04-28T14:36:03.919Z,71.00
2019-04-28T14:38:33.278Z,71.50
2019-04-28T14:41:01.846Z,70.90
2019-04-28T14:43:30.382Z,70.80
2019-04-28T14:45:58.916Z,69.10
2019-04-28T14:48:27.611Z,70.70
2019-04-28T14:50:56.329Z,70.10
2019-04-28T14:53:24.809Z,69.50
2019-04-28T14:55:53.431Z,69.20
2019-04-28T14:58:21.951Z,70.00
2019-04-28T15:01:01.196Z,69.70
2019-04-28T15:03:31.353Z,69.30
2019-04-28T15:06:01.510Z,69.00
2019-04-28T15:08:43.923Z,67.40
2019-04-28T15:11:20.249Z,68.00
2019-04-28T15:13:48.757Z,69.70
2019-04-28T15:16:17.358Z,70.00
2019-04-28T15:18:45.803Z,67.50
2019-04-28T15:21:14.285Z,66.40
2019-04-28T15:23:42.762Z,67.50
2019-04-28T15:26:11.244Z,66.10
2019-04-28T15:28:39.694Z,66.50
2019-04-28T15:31:08.158Z,66.30
2019-04-28T15:33:36.682Z,66.80
2019-04-28T15:36:05.228Z,66.30
2019-04-28T15:38:33.704Z,66.20
2019-04-28T15:41:02.250Z,65.10
2019-04-28T15:43:30.794Z,65.70
2019-04-28T15:45:59.385Z,65.60
2019-04-28T15:48:28.040Z,66.20
2019-04-28T15:50:56.494Z,67.20
2019-04-28T15:53:25.112Z,67.20
2019-04-28T15:55:55.235Z,66.90
2019-04-28T15:58:31.597Z,66.80
2019-04-28T16:01:00.279Z,67.00
2019-04-28T16:03:28.834Z,65.90
2019-04-28T16:05:59.940Z,67.10
2019-04-28T16:08:29.141Z,68.10
2019-04-28T16:10:57.661Z,68.20
2019-04-28T16:13:26.110Z,67.70
2019-04-28T16:15:54.606Z,68.30
2019-04-28T16:18:23.063Z,68.00
2019-04-28T16:20:51.602Z,66.80
2019-04-28T16:23:20.120Z,66.50
2019-04-28T16:25:48.587Z,67.60
2019-04-28T16:28:17.122Z,67.60
2019-04-28T16:30:45.910Z,68.30
2019-04-28T16:33:14.382Z,67.40
2019-04-28T16:35:42.887Z,67.40
2019-04-28T16:38:11.394Z,66.70
2019-04-28T16:40:39.981Z,66.40
2019-04-28T16:43:08.485Z,66.80
2019-04-28T16:45:37.106Z,66.20
2019-04-28T16:48:05.616Z,67.30
2019-04-28T16:50:34.226Z,67.20
2019-04-28T16:53:02.708Z,67.00
2019-04-28T16:55:45.024Z,67.00
2019-04-28T16:58:26.524Z,68.00
2019-04-28T17:00:59.931Z,69.60
2019-04-28T17:03:32.897Z,70.30
2019-04-28T17:06:01.421Z,69.80
2019-04-28T17:08:29.999Z,70.70
2019-04-28T17:10:58.524Z,71.80
2019-04-28T17:13:27.064Z,72.20
2019-04-28T17:15:55.536Z,72.40
2019-04-28T17:18:24.094Z,72.60
2019-04-28T17:20:54.962Z,72.50
2019-04-28T17:23:22.776Z,72.70
2019-04-28T17:25:51.313Z,73.50
2019-04-28T17:28:19.849Z,73.90
2019-04-28T17:30:48.308Z,74.00
2019-04-28T17:33:16.856Z,73.50
2019-04-28T17:35:45.900Z,73.90
2019-04-28T17:38:14.383Z,74.50
2019-04-28T17:40:45.329Z,75.00
2019-04-28T17:43:14.933Z,75.00
2019-04-28T17:45:43.487Z,74.70
2019-04-28T17:48:13.715Z,74.70
2019-04-28T17:50:45.106Z,75.10
2019-04-28T17:53:12.342Z,75.10
2019-04-28T17:55:40.945Z,75.30
2019-04-28T17:58:09.413Z,75.10
2019-04-28T18:00:39.846Z,74.70
2019-04-28T18:03:26.191Z,75.00
2019-04-28T18:05:59.739Z,74.20
2019-04-28T18:08:28.483Z,73.90
2019-04-28T18:10:56.979Z,74.50
2019-04-28T18:13:25.510Z,74.70
2019-04-28T18:15:58.395Z,75.00
2019-04-28T18:18:28.581Z,75.30
2019-04-28T18:20:57.135Z,75.80
2019-04-28T18:23:25.584Z,76.30
2019-04-28T18:25:54.074Z,77.50
2019-04-28T18:28:22.665Z,78.00
2019-04-28T18:30:58.830Z,78.00
2019-04-28T18:33:29.349Z,78.20
2019-04-28T18:35:59.541Z,78.40
2019-04-28T18:38:35.316Z,79.20
2019-04-28T18:41:04.391Z,80.10
2019-04-28T18:43:50.752Z,82.40
2019-04-28T18:46:20.875Z,81.70
2019-04-28T18:48:49.321Z,82.00
2019-04-28T18:51:17.796Z,82.00
2019-04-28T18:53:46.242Z,82.00
2019-04-28T18:56:14.726Z,83.30
2019-04-28T18:58:43.222Z,83.90
2019-04-28T19:01:29.533Z,84.20
2019-04-28T19:03:58.059Z,84.90
2019-04-28T19:06:26.587Z,84.20
2019-04-28T19:08:56.799Z,84.30
2019-04-28T19:11:26.998Z,84.40
2019-04-28T19:14:15.180Z,84.70
2019-04-28T19:16:54.462Z,85.10
2019-04-28T19:19:30.143Z,85.50
2019-04-28T19:21:58.784Z,85.40
2019-04-28T19:24:28.379Z,85.40
2019-04-28T19:26:56.872Z,85.60
2019-04-28T19:29:25.410Z,85.80
2019-04-28T19:31:54.308Z,85.90
2019-04-28T19:34:22.776Z,85.80
2019-04-28T19:36:51.226Z,85.50
2019-04-28T19:39:19.764Z,85.80
2019-04-28T19:41:48.292Z,85.70
2019-04-28T19:44:16.749Z,85.90
2019-04-28T19:46:45.215Z,85.90
2019-04-28T19:49:13.672Z,86.00
2019-04-28T19:51:42.203Z,87.10
2019-04-28T19:54:11.434Z,86.90
2019-04-28T19:56:47.474Z,86.50
2019-04-28T19:59:23.668Z,87.30
2019-04-28T20:01:52.171Z,87.40
2019-04-28T20:04:20.656Z,87.40
2019-04-28T20:06:49.176Z,87.20
2019-04-28T20:09:17.667Z,87.20
2019-04-28T20:11:46.252Z,87.50
2019-04-28T20:14:14.884Z,87.70
2019-04-28T20:16:43.382Z,88.20
2019-04-28T20:19:11.872Z,88.10
2019-04-28T20:21:40.358Z,88.60
2019-04-28T20:24:08.864Z,88.50
2019-04-28T20:26:37.552Z,89.10
2019-04-28T20:29:06.029Z,89.30
2019-04-28T20:31:34.650Z,89.50
2019-04-28T20:34:03.168Z,89.30
2019-04-28T20:36:33.310Z,89.70
2019-04-28T20:39:03.416Z,89.90
2019-04-28T20:41:31.861Z,90.00
2019-04-28T20:44:00.402Z,90.00
2019-04-28T20:46:28.951Z,90.00
2019-04-28T20:48:57.427Z,90.20
2019-04-28T20:51:26.015Z,90.10
2019-04-28T20:53:54.494Z,90.10
2019-04-28T20:56:23.073Z,90.30
2019-04-28T20:58:51.595Z,90.30
2019-04-28T21:01:20.035Z,90.30
2019-04-28T21:03:48.516Z,90.30
2019-04-28T21:06:16.998Z,90.20
2019-04-28T21:08:45.494Z,90.20
2019-04-28T21:11:14.074Z,90.40
2019-04-28T21:13:42.587Z,90.50
2019-04-28T21:16:11.131Z,91.00
2019-04-28T21:18:39.572Z,90.60
2019-04-28T21:21:08.031Z,90.60
2019-04-28T21:23:36.495Z,90.70
2019-04-28T21:26:05.076Z,90.60
2019-04-28T21:28:33.543Z,90.40
2019-04-28T21:31:02.018Z,90.50
2019-04-28T21:33:30.565Z,90.50
2019-04-28T21:35:59.116Z,90.40
2019-04-28T21:38:27.624Z,90.50
2019-04-28T21:40:56.358Z,90.60
2019-04-28T21:43:26.539Z,90.60
2019-04-28T21:46:08.587Z,90.80
2019-04-28T21:48:53.387Z,90.80
2019-04-28T21:51:21.946Z,90.40
2019-04-28T21:53:50.459Z,90.50
2019-04-28T21:56:19.255Z,90.50
2019-04-28T21:58:47.698Z,90.60
2019-04-28T22:01:19.422Z,90.50
2019-04-28T22:03:47.887Z,90.40
2019-04-28T22:06:16.450Z,90.40
2019-04-28T22:08:45.047Z,90.50
2019-04-28T22:11:13.570Z,90.50
2019-04-28T22:13:42.012Z,90.30
2019-04-28T22:16:10.488Z,90.30
2019-04-28T22:18:39.075Z,90.40
2019-04-28T22:21:07.719Z,90.40
2019-04-28T22:23:40.539Z,90.40
2019-04-28T22:26:10.081Z,90.40
2019-04-28T22:28:38.631Z,90.70
2019-04-28T22:31:07.166Z,90.90
2019-04-28T22:33:35.628Z,90.90
2019-04-28T22:36:04.255Z,91.00
2019-04-28T22:38:32.793Z,91.10
2019-04-28T22:41:01.335Z,90.80
2019-04-28T22:43:30.035Z,90.80
2019-04-28T22:45:58.582Z,90.70
2019-04-28T22:48:27.191Z,90.90
2019-04-28T22:50:55.729Z,91.00
2019-04-28T22:53:25.844Z,91.10
2019-04-28T22:56:01.767Z,91.20
2019-04-28T22:58:34.852Z,91.30
2019-04-28T23:01:10.601Z,91.30
2019-04-28T23:03:40.715Z,91.30
2019-04-28T23:06:10.600Z,91.30
2019-04-28T23:08:39.222Z,91.30
2019-04-28T23:11:07.871Z,91.20
2019-04-28T23:13:36.322Z,91.20
2019-04-28T23:16:04.840Z,91.30
2019-04-28T23:18:33.655Z,90.90
2019-04-28T23:21:06.781Z,90.70
2019-04-28T23:23:35.245Z,90.70
2019-04-28T23:26:03.759Z,90.50
2019-04-28T23:28:32.294Z,90.50
2019-04-28T23:31:00.757Z,90.40
2019-04-28T23:33:29.277Z,90.00
2019-04-28T23:35:57.718Z,90.10
2019-04-28T23:38:26.181Z,89.90
2019-04-28T23:41:05.085Z,90.00
2019-04-28T23:43:33.680Z,89.90
2019-04-28T23:46:02.263Z,89.80
2019-04-28T23:48:30.811Z,89.50
2019-04-28T23:51:00.900Z,89.90
2019-04-28T23:53:47.443Z,90.00
2019-04-28T23:56:15.951Z,90.30
2019-04-28T23:58:44.441Z,89.70
